sensor_id;sensor_type;location;lat;lon;timestamp;temperature;humidity
46754;DHT22;32500;50.620;3.400;2023-04-24T00:02:04;16.60;72.90
46754;DHT22;32500;50.620;3.400;2023-04-24T00:04:32;16.60;72.80
46754;DHT22;32500;50.620;3.400;2023-04-24T00:06:57;16.50;72.70
46754;DHT22;32500;50.620;3.400;2023-04-24T00:09:25;16.50;72.90
46754;DHT22;32500;50.620;3.400;2023-04-24T00:11:51;16.50;72.80
46754;DHT22;32500;50.620;3.400;2023-04-24T00:14:17;16.50;72.80
46754;DHT22;32500;50.620;3.400;2023-04-24T00:16:43;16.50;72.80
46754;DHT22;32500;50.620;3.400;2023-04-24T00:19:08;16.50;72.70
46754;DHT22;32500;50.620;3.400;2023-04-24T00:21:34;16.50;72.60
46754;DHT22;32500;50.620;3.400;2023-04-24T00:24:00;16.50;72.30
46754;DHT22;32500;50.620;3.400;2023-04-24T00:26:26;16.40;72.60
46754;DHT22;32500;50.620;3.400;2023-04-24T00:28:51;16.40;72.60
46754;DHT22;32500;50.620;3.400;2023-04-24T00:31:17;16.40;72.80
46754;DHT22;32500;50.620;3.400;2023-04-24T00:33:43;16.50;72.70
46754;DHT22;32500;50.620;3.400;2023-04-24T00:36:09;16.40;72.60
46754;DHT22;32500;50.620;3.400;2023-04-24T00:38:34;16.50;72.80
46754;DHT22;32500;50.620;3.400;2023-04-24T00:41:00;16.40;72.60
46754;DHT22;32500;50.620;3.400;2023-04-24T00:43:26;16.40;72.90
46754;DHT22;32500;50.620;3.400;2023-04-24T00:45:51;16.40;72.90
46754;DHT22;32500;50.620;3.400;2023-04-24T00:48:18;16.40;72.80
46754;DHT22;32500;50.620;3.400;2023-04-24T00:50:44;16.40;72.80
46754;DHT22;32500;50.620;3.400;2023-04-24T00:53:10;16.40;72.70
46754;DHT22;32500;50.620;3.400;2023-04-24T00:55:36;16.30;72.50
46754;DHT22;32500;50.620;3.400;2023-04-24T00:58:03;16.30;72.60
46754;DHT22;32500;50.620;3.400;2023-04-24T01:00:28;16.30;72.70
46754;DHT22;32500;50.620;3.400;2023-04-24T01:02:55;16.30;72.50
46754;DHT22;32500;50.620;3.400;2023-04-24T01:05:21;16.30;72.70
46754;DHT22;32500;50.620;3.400;2023-04-24T01:07:47;16.30;72.70
46754;DHT22;32500;50.620;3.400;2023-04-24T01:10:15;16.30;72.70
46754;DHT22;32500;50.620;3.400;2023-04-24T01:12:41;16.30;72.60
46754;DHT22;32500;50.620;3.400;2023-04-24T01:15:07;16.30;72.70
46754;DHT22;32500;50.620;3.400;2023-04-24T01:17:33;16.20;72.80
46754;DHT22;32500;50.620;3.400;2023-04-24T01:20:00;16.20;72.70
46754;DHT22;32500;50.620;3.400;2023-04-24T01:22:26;16.20;72.70
46754;DHT22;32500;50.620;3.400;2023-04-24T01:24:53;16.20;72.80
46754;DHT22;32500;50.620;3.400;2023-04-24T01:27:19;16.20;72.80
46754;DHT22;32500;50.620;3.400;2023-04-24T01:29:45;16.20;72.80
46754;DHT22;32500;50.620;3.400;2023-04-24T01:32:11;16.20;72.60
46754;DHT22;32500;50.620;3.400;2023-04-24T01:34:37;16.20;72.70
46754;DHT22;32500;50.620;3.400;2023-04-24T01:37:03;16.20;72.70
46754;DHT22;32500;50.620;3.400;2023-04-24T01:39:30;16.20;72.70
46754;DHT22;32500;50.620;3.400;2023-04-24T01:41:56;16.10;72.70
46754;DHT22;32500;50.620;3.400;2023-04-24T01:44:22;16.10;72.60
46754;DHT22;32500;50.620;3.400;2023-04-24T01:46:48;16.10;72.60
46754;DHT22;32500;50.620;3.400;2023-04-24T01:49:13;16.10;72.70
46754;DHT22;32500;50.620;3.400;2023-04-24T01:51:39;16.10;73.30
46754;DHT22;32500;50.620;3.400;2023-04-24T01:54:05;16.10;72.70
46754;DHT22;32500;50.620;3.400;2023-04-24T01:56:33;16.10;72.60
46754;DHT22;32500;50.620;3.400;2023-04-24T01:59:02;16.10;72.70
46754;DHT22;32500;50.620;3.400;2023-04-24T02:01:33;16.10;72.70
46754;DHT22;32500;50.620;3.400;2023-04-24T02:04:00;16.10;72.60
46754;DHT22;32500;50.620;3.400;2023-04-24T02:06:25;16.10;72.80
46754;DHT22;32500;50.620;3.400;2023-04-24T02:08:51;16.00;72.60
46754;DHT22;32500;50.620;3.400;2023-04-24T02:11:17;16.00;72.50
46754;DHT22;32500;50.620;3.400;2023-04-24T02:13:44;16.00;72.50
46754;DHT22;32500;50.620;3.400;2023-04-24T02:16:09;16.10;72.50
46754;DHT22;32500;50.620;3.400;2023-04-24T02:18:35;16.00;72.50
46754;DHT22;32500;50.620;3.400;2023-04-24T02:21:01;16.00;72.50
46754;DHT22;32500;50.620;3.400;2023-04-24T02:23:26;16.00;72.50
46754;DHT22;32500;50.620;3.400;2023-04-24T02:25:52;16.00;72.30
46754;DHT22;32500;50.620;3.400;2023-04-24T02:28:19;16.00;72.40
46754;DHT22;32500;50.620;3.400;2023-04-24T02:30:44;16.00;72.40
46754;DHT22;32500;50.620;3.400;2023-04-24T02:33:11;16.00;72.00
46754;DHT22;32500;50.620;3.400;2023-04-24T02:35:37;15.90;72.20
46754;DHT22;32500;50.620;3.400;2023-04-24T02:38:02;15.90;72.10
46754;DHT22;32500;50.620;3.400;2023-04-24T02:40:28;15.90;72.40
46754;DHT22;32500;50.620;3.400;2023-04-24T02:42:54;15.90;72.50
46754;DHT22;32500;50.620;3.400;2023-04-24T02:45:20;15.90;72.50
46754;DHT22;32500;50.620;3.400;2023-04-24T02:47:45;15.90;72.50
46754;DHT22;32500;50.620;3.400;2023-04-24T02:50:11;15.90;72.80
46754;DHT22;32500;50.620;3.400;2023-04-24T02:52:37;15.90;72.80
46754;DHT22;32500;50.620;3.400;2023-04-24T02:55:02;15.90;72.70
46754;DHT22;32500;50.620;3.400;2023-04-24T02:57:28;15.90;73.20
46754;DHT22;32500;50.620;3.400;2023-04-24T02:59:54;15.90;72.90
46754;DHT22;32500;50.620;3.400;2023-04-24T03:02:19;15.90;72.90
46754;DHT22;32500;50.620;3.400;2023-04-24T03:04:46;15.80;72.80
46754;DHT22;32500;50.620;3.400;2023-04-24T03:07:13;15.90;72.90
46754;DHT22;32500;50.620;3.400;2023-04-24T03:09:40;15.90;72.90
46754;DHT22;32500;50.620;3.400;2023-04-24T03:12:06;15.80;72.40
46754;DHT22;32500;50.620;3.400;2023-04-24T03:14:32;15.80;72.50
46754;DHT22;32500;50.620;3.400;2023-04-24T03:16:57;15.80;72.50
46754;DHT22;32500;50.620;3.400;2023-04-24T03:19:23;15.80;72.50
46754;DHT22;32500;50.620;3.400;2023-04-24T03:21:49;15.80;72.70
46754;DHT22;32500;50.620;3.400;2023-04-24T03:24:15;15.80;72.70
46754;DHT22;32500;50.620;3.400;2023-04-24T03:26:41;15.80;72.60
46754;DHT22;32500;50.620;3.400;2023-04-24T03:29:06;15.80;72.60
46754;DHT22;32500;50.620;3.400;2023-04-24T03:31:32;15.80;72.50
46754;DHT22;32500;50.620;3.400;2023-04-24T03:33:58;15.70;72.10
46754;DHT22;32500;50.620;3.400;2023-04-24T03:36:23;15.80;73.20
46754;DHT22;32500;50.620;3.400;2023-04-24T03:38:49;15.70;72.60
46754;DHT22;32500;50.620;3.400;2023-04-24T03:41:15;15.70;72.40
46754;DHT22;32500;50.620;3.400;2023-04-24T03:43:40;15.80;72.50
46754;DHT22;32500;50.620;3.400;2023-04-24T03:46:06;15.70;72.40
46754;DHT22;32500;50.620;3.400;2023-04-24T03:48:34;15.70;72.50
46754;DHT22;32500;50.620;3.400;2023-04-24T03:51:00;15.70;72.40
46754;DHT22;32500;50.620;3.400;2023-04-24T03:53:26;15.70;72.40
46754;DHT22;32500;50.620;3.400;2023-04-24T03:55:52;15.70;72.50
46754;DHT22;32500;50.620;3.400;2023-04-24T03:58:18;15.70;72.40
46754;DHT22;32500;50.620;3.400;2023-04-24T04:00:44;15.70;72.40
46754;DHT22;32500;50.620;3.400;2023-04-24T04:03:12;15.70;72.50
46754;DHT22;32500;50.620;3.400;2023-04-24T04:05:39;15.70;72.40
46754;DHT22;32500;50.620;3.400;2023-04-24T04:08:04;15.70;72.10
46754;DHT22;32500;50.620;3.400;2023-04-24T04:10:30;15.70;72.40
46754;DHT22;32500;50.620;3.400;2023-04-24T04:12:56;15.60;72.20
46754;DHT22;32500;50.620;3.400;2023-04-24T04:15:22;15.60;72.50
46754;DHT22;32500;50.620;3.400;2023-04-24T04:17:47;15.70;72.40
46754;DHT22;32500;50.620;3.400;2023-04-24T04:20:13;15.60;72.40
46754;DHT22;32500;50.620;3.400;2023-04-24T04:22:39;15.60;72.50
46754;DHT22;32500;50.620;3.400;2023-04-24T04:25:05;15.60;72.40
46754;DHT22;32500;50.620;3.400;2023-04-24T04:27:32;15.60;72.20
46754;DHT22;32500;50.620;3.400;2023-04-24T04:30:03;15.60;72.30
46754;DHT22;32500;50.620;3.400;2023-04-24T04:32:33;15.60;72.30
46754;DHT22;32500;50.620;3.400;2023-04-24T04:34:59;15.60;72.10
46754;DHT22;32500;50.620;3.400;2023-04-24T04:37:32;15.60;72.10
46754;DHT22;32500;50.620;3.400;2023-04-24T04:39:59;15.60;72.30
46754;DHT22;32500;50.620;3.400;2023-04-24T04:42:25;15.60;72.10
46754;DHT22;32500;50.620;3.400;2023-04-24T04:44:52;15.60;72.20
46754;DHT22;32500;50.620;3.400;2023-04-24T04:47:18;15.60;71.90
46754;DHT22;32500;50.620;3.400;2023-04-24T04:49:47;15.50;71.80
46754;DHT22;32500;50.620;3.400;2023-04-24T04:52:13;15.60;71.90
46754;DHT22;32500;50.620;3.400;2023-04-24T04:54:39;15.50;71.70
46754;DHT22;32500;50.620;3.400;2023-04-24T04:57:05;15.50;71.90
46754;DHT22;32500;50.620;3.400;2023-04-24T04:59:31;15.50;71.80
46754;DHT22;32500;50.620;3.400;2023-04-24T05:01:57;15.50;71.70
46754;DHT22;32500;50.620;3.400;2023-04-24T05:04:22;15.50;71.70
46754;DHT22;32500;50.620;3.400;2023-04-24T05:06:48;15.50;71.70
46754;DHT22;32500;50.620;3.400;2023-04-24T05:09:16;15.50;71.80
46754;DHT22;32500;50.620;3.400;2023-04-24T05:11:42;15.50;71.70
46754;DHT22;32500;50.620;3.400;2023-04-24T05:14:07;15.50;71.80
46754;DHT22;32500;50.620;3.400;2023-04-24T05:16:33;15.50;71.70
46754;DHT22;32500;50.620;3.400;2023-04-24T05:18:59;15.50;71.70
46754;DHT22;32500;50.620;3.400;2023-04-24T05:21:24;15.50;71.80
46754;DHT22;32500;50.620;3.400;2023-04-24T05:23:50;15.50;71.80
46754;DHT22;32500;50.620;3.400;2023-04-24T05:26:16;15.40;71.80
46754;DHT22;32500;50.620;3.400;2023-04-24T05:28:43;15.40;71.90
46754;DHT22;32500;50.620;3.400;2023-04-24T05:31:08;15.40;72.00
46754;DHT22;32500;50.620;3.400;2023-04-24T05:33:35;15.40;72.00
46754;DHT22;32500;50.620;3.400;2023-04-24T05:36:00;15.40;72.10
46754;DHT22;32500;50.620;3.400;2023-04-24T05:38:26;15.40;72.10
46754;DHT22;32500;50.620;3.400;2023-04-24T05:40:53;15.40;72.30
46754;DHT22;32500;50.620;3.400;2023-04-24T05:43:18;15.40;72.30
46754;DHT22;32500;50.620;3.400;2023-04-24T05:45:44;15.40;72.30
46754;DHT22;32500;50.620;3.400;2023-04-24T05:48:10;15.40;72.50
46754;DHT22;32500;50.620;3.400;2023-04-24T05:50:36;15.40;72.80
46754;DHT22;32500;50.620;3.400;2023-04-24T05:53:01;15.40;72.70
46754;DHT22;32500;50.620;3.400;2023-04-24T05:55:27;15.40;72.60
46754;DHT22;32500;50.620;3.400;2023-04-24T05:57:53;15.40;72.70
46754;DHT22;32500;50.620;3.400;2023-04-24T06:00:19;15.40;72.50
46754;DHT22;32500;50.620;3.400;2023-04-24T06:02:46;15.40;72.60
46754;DHT22;32500;50.620;3.400;2023-04-24T06:05:12;15.40;72.70
46754;DHT22;32500;50.620;3.400;2023-04-24T06:07:38;15.40;72.50
46754;DHT22;32500;50.620;3.400;2023-04-24T06:10:04;15.40;72.50
46754;DHT22;32500;50.620;3.400;2023-04-24T06:12:30;15.40;72.40
46754;DHT22;32500;50.620;3.400;2023-04-24T06:14:55;15.40;72.30
46754;DHT22;32500;50.620;3.400;2023-04-24T06:17:21;15.40;72.30
46754;DHT22;32500;50.620;3.400;2023-04-24T06:19:47;15.40;72.50
46754;DHT22;32500;50.620;3.400;2023-04-24T06:22:12;15.40;72.20
46754;DHT22;32500;50.620;3.400;2023-04-24T06:24:39;15.40;72.50
46754;DHT22;32500;50.620;3.400;2023-04-24T06:27:05;15.30;72.20
46754;DHT22;32500;50.620;3.400;2023-04-24T06:29:32;15.40;72.40
46754;DHT22;32500;50.620;3.400;2023-04-24T06:31:58;15.30;72.30
46754;DHT22;32500;50.620;3.400;2023-04-24T06:34:24;15.40;72.30
46754;DHT22;32500;50.620;3.400;2023-04-24T06:36:49;15.40;72.30
46754;DHT22;32500;50.620;3.400;2023-04-24T06:39:15;15.40;72.30
46754;DHT22;32500;50.620;3.400;2023-04-24T06:41:41;15.30;71.90
46754;DHT22;32500;50.620;3.400;2023-04-24T06:44:06;15.40;72.00
46754;DHT22;32500;50.620;3.400;2023-04-24T06:46:32;15.30;71.80
46754;DHT22;32500;50.620;3.400;2023-04-24T06:48:58;15.40;72.10
46754;DHT22;32500;50.620;3.400;2023-04-24T06:51:24;15.30;71.60
46754;DHT22;32500;50.620;3.400;2023-04-24T06:53:52;15.30;71.80
46754;DHT22;32500;50.620;3.400;2023-04-24T06:56:18;15.30;71.80
46754;DHT22;32500;50.620;3.400;2023-04-24T06:58:43;15.40;71.90
46754;DHT22;32500;50.620;3.400;2023-04-24T07:01:10;15.40;71.80
46754;DHT22;32500;50.620;3.400;2023-04-24T07:03:36;15.40;71.70
46754;DHT22;32500;50.620;3.400;2023-04-24T07:06:02;15.30;71.90
46754;DHT22;32500;50.620;3.400;2023-04-24T07:08:29;15.40;71.80
46754;DHT22;32500;50.620;3.400;2023-04-24T07:10:56;15.30;71.50
46754;DHT22;32500;50.620;3.400;2023-04-24T07:13:22;15.40;71.50
46754;DHT22;32500;50.620;3.400;2023-04-24T07:15:48;15.30;71.70
46754;DHT22;32500;50.620;3.400;2023-04-24T07:18:16;15.30;71.40
46754;DHT22;32500;50.620;3.400;2023-04-24T07:20:42;15.40;71.50
46754;DHT22;32500;50.620;3.400;2023-04-24T07:23:08;15.40;71.60
46754;DHT22;32500;50.620;3.400;2023-04-24T07:25:34;15.40;71.60
46754;DHT22;32500;50.620;3.400;2023-04-24T07:27:59;15.30;71.40
46754;DHT22;32500;50.620;3.400;2023-04-24T07:30:25;15.40;71.40
46754;DHT22;32500;50.620;3.400;2023-04-24T07:32:51;15.30;71.40
46754;DHT22;32500;50.620;3.400;2023-04-24T07:35:17;15.40;71.40
46754;DHT22;32500;50.620;3.400;2023-04-24T07:37:42;15.40;71.40
46754;DHT22;32500;50.620;3.400;2023-04-24T07:40:12;15.40;71.50
46754;DHT22;32500;50.620;3.400;2023-04-24T07:42:38;15.40;71.60
46754;DHT22;32500;50.620;3.400;2023-04-24T07:45:04;15.30;71.70
46754;DHT22;32500;50.620;3.400;2023-04-24T07:47:30;15.30;71.50
46754;DHT22;32500;50.620;3.400;2023-04-24T07:49:56;15.30;71.20
46754;DHT22;32500;50.620;3.400;2023-04-24T07:52:22;15.30;70.90
46754;DHT22;32500;50.620;3.400;2023-04-24T07:54:47;15.40;71.50
46754;DHT22;32500;50.620;3.400;2023-04-24T07:57:13;15.40;71.20
46754;DHT22;32500;50.620;3.400;2023-04-24T07:59:39;15.40;71.20
46754;DHT22;32500;50.620;3.400;2023-04-24T08:02:05;15.40;71.40
46754;DHT22;32500;50.620;3.400;2023-04-24T08:04:31;15.40;71.30
46754;DHT22;32500;50.620;3.400;2023-04-24T08:06:57;15.40;71.20
46754;DHT22;32500;50.620;3.400;2023-04-24T08:09:23;15.40;71.20
46754;DHT22;32500;50.620;3.400;2023-04-24T08:11:48;15.40;71.40
46754;DHT22;32500;50.620;3.400;2023-04-24T08:14:15;15.40;71.10
46754;DHT22;32500;50.620;3.400;2023-04-24T08:16:41;15.40;71.10
46754;DHT22;32500;50.620;3.400;2023-04-24T08:19:07;15.50;71.50
46754;DHT22;32500;50.620;3.400;2023-04-24T08:21:32;15.50;71.40
46754;DHT22;32500;50.620;3.400;2023-04-24T08:23:58;15.40;71.10
46754;DHT22;32500;50.620;3.400;2023-04-24T08:26:24;15.50;71.30
46754;DHT22;32500;50.620;3.400;2023-04-24T08:28:50;15.40;71.10
46754;DHT22;32500;50.620;3.400;2023-04-24T08:31:16;15.50;71.50
46754;DHT22;32500;50.620;3.400;2023-04-24T08:33:41;15.50;71.50
46754;DHT22;32500;50.620;3.400;2023-04-24T08:36:10;15.50;71.30
46754;DHT22;32500;50.620;3.400;2023-04-24T08:38:36;15.50;71.50
46754;DHT22;32500;50.620;3.400;2023-04-24T08:41:02;15.50;71.40
46754;DHT22;32500;50.620;3.400;2023-04-24T08:43:30;15.50;71.30
46754;DHT22;32500;50.620;3.400;2023-04-24T08:45:57;15.50;71.30
46754;DHT22;32500;50.620;3.400;2023-04-24T08:48:23;15.50;71.30
46754;DHT22;32500;50.620;3.400;2023-04-24T08:50:50;15.50;71.60
46754;DHT22;32500;50.620;3.400;2023-04-24T08:53:17;15.50;71.50
46754;DHT22;32500;50.620;3.400;2023-04-24T08:55:43;15.50;71.60
46754;DHT22;32500;50.620;3.400;2023-04-24T08:58:11;15.50;71.30
46754;DHT22;32500;50.620;3.400;2023-04-24T09:00:39;15.50;71.40
46754;DHT22;32500;50.620;3.400;2023-04-24T09:03:05;15.50;71.30
46754;DHT22;32500;50.620;3.400;2023-04-24T09:05:32;15.50;71.60
46754;DHT22;32500;50.620;3.400;2023-04-24T09:07:59;15.50;71.40
46754;DHT22;32500;50.620;3.400;2023-04-24T09:10:27;15.50;71.50
46754;DHT22;32500;50.620;3.400;2023-04-24T09:12:56;15.50;71.60
46754;DHT22;32500;50.620;3.400;2023-04-24T09:15:24;15.50;71.40
46754;DHT22;32500;50.620;3.400;2023-04-24T09:17:51;15.50;71.30
46754;DHT22;32500;50.620;3.400;2023-04-24T09:20:16;15.50;71.30
46754;DHT22;32500;50.620;3.400;2023-04-24T09:22:42;15.60;71.10
46754;DHT22;32500;50.620;3.400;2023-04-24T09:25:10;15.60;71.20
46754;DHT22;32500;50.620;3.400;2023-04-24T09:27:42;15.60;70.80
46754;DHT22;32500;50.620;3.400;2023-04-24T09:30:09;15.60;71.00
46754;DHT22;32500;50.620;3.400;2023-04-24T09:32:34;15.60;70.80
46754;DHT22;32500;50.620;3.400;2023-04-24T09:37:40;15.60;71.10
46754;DHT22;32500;50.620;3.400;2023-04-24T09:40:07;15.70;70.60
46754;DHT22;32500;50.620;3.400;2023-04-24T09:42:32;15.70;71.00
46754;DHT22;32500;50.620;3.400;2023-04-24T09:44:58;15.70;71.00
46754;DHT22;32500;50.620;3.400;2023-04-24T09:47:24;15.70;70.90
46754;DHT22;32500;50.620;3.400;2023-04-24T09:49:49;15.70;70.90
46754;DHT22;32500;50.620;3.400;2023-04-24T09:52:15;15.70;70.80
46754;DHT22;32500;50.620;3.400;2023-04-24T09:54:40;15.70;71.00
46754;DHT22;32500;50.620;3.400;2023-04-24T09:57:09;15.70;70.70
46754;DHT22;32500;50.620;3.400;2023-04-24T09:59:35;15.70;70.90
46754;DHT22;32500;50.620;3.400;2023-04-24T10:02:16;15.70;70.90
46754;DHT22;32500;50.620;3.400;2023-04-24T10:04:54;15.70;70.90
46754;DHT22;32500;50.620;3.400;2023-04-24T10:07:21;15.70;70.70
46754;DHT22;32500;50.620;3.400;2023-04-24T10:09:47;15.80;70.90
46754;DHT22;32500;50.620;3.400;2023-04-24T10:12:13;15.80;71.00
46754;DHT22;32500;50.620;3.400;2023-04-24T10:14:40;15.80;70.70
46754;DHT22;32500;50.620;3.400;2023-04-24T10:17:06;15.80;71.60
46754;DHT22;32500;50.620;3.400;2023-04-24T10:19:32;15.80;71.00
46754;DHT22;32500;50.620;3.400;2023-04-24T10:21:59;15.80;70.90
46754;DHT22;32500;50.620;3.400;2023-04-24T10:24:26;15.80;71.10
46754;DHT22;32500;50.620;3.400;2023-04-24T10:26:52;15.90;71.10
46754;DHT22;32500;50.620;3.400;2023-04-24T10:29:19;15.80;71.00
46754;DHT22;32500;50.620;3.400;2023-04-24T10:31:45;15.90;71.00
46754;DHT22;32500;50.620;3.400;2023-04-24T10:34:11;15.90;71.00
46754;DHT22;32500;50.620;3.400;2023-04-24T10:36:42;15.90;70.90
46754;DHT22;32500;50.620;3.400;2023-04-24T10:39:12;15.90;70.90
46754;DHT22;32500;50.620;3.400;2023-04-24T10:41:38;15.90;71.10
46754;DHT22;32500;50.620;3.400;2023-04-24T10:44:15;15.90;71.10
46754;DHT22;32500;50.620;3.400;2023-04-24T10:46:53;15.90;71.70
46754;DHT22;32500;50.620;3.400;2023-04-24T10:49:28;15.90;71.10
46754;DHT22;32500;50.620;3.400;2023-04-24T10:52:00;15.90;71.10
46754;DHT22;32500;50.620;3.400;2023-04-24T10:54:27;15.90;71.20
46754;DHT22;32500;50.620;3.400;2023-04-24T10:56:56;16.00;71.40
46754;DHT22;32500;50.620;3.400;2023-04-24T10:59:39;16.00;71.30
46754;DHT22;32500;50.620;3.400;2023-04-24T11:02:07;16.00;71.10
46754;DHT22;32500;50.620;3.400;2023-04-24T11:04:33;16.00;71.30
46754;DHT22;32500;50.620;3.400;2023-04-24T11:07:00;16.00;71.30
46754;DHT22;32500;50.620;3.400;2023-04-24T11:09:27;16.00;71.40
46754;DHT22;32500;50.620;3.400;2023-04-24T11:12:04;16.00;71.40
46754;DHT22;32500;50.620;3.400;2023-04-24T11:17:37;16.00;71.50
46754;DHT22;32500;50.620;3.400;2023-04-24T11:20:10;16.00;71.50
46754;DHT22;32500;50.620;3.400;2023-04-24T11:22:39;16.00;71.60
46754;DHT22;32500;50.620;3.400;2023-04-24T11:25:06;16.00;71.50
46754;DHT22;32500;50.620;3.400;2023-04-24T11:30:05;16.10;71.40
46754;DHT22;32500;50.620;3.400;2023-04-24T11:35:01;16.00;71.30
46754;DHT22;32500;50.620;3.400;2023-04-24T11:37:33;16.10;71.40
46754;DHT22;32500;50.620;3.400;2023-04-24T11:39:59;16.00;71.20
46754;DHT22;32500;50.620;3.400;2023-04-24T11:42:25;16.10;71.20
46754;DHT22;32500;50.620;3.400;2023-04-24T11:44:55;16.10;71.30
46754;DHT22;32500;50.620;3.400;2023-04-24T11:47:28;16.10;71.30
46754;DHT22;32500;50.620;3.400;2023-04-24T11:49:54;16.10;71.40
46754;DHT22;32500;50.620;3.400;2023-04-24T11:52:20;16.10;71.40
46754;DHT22;32500;50.620;3.400;2023-04-24T11:54:49;16.00;71.30
46754;DHT22;32500;50.620;3.400;2023-04-24T11:57:16;16.10;71.40
46754;DHT22;32500;50.620;3.400;2023-04-24T11:59:42;16.10;71.40
46754;DHT22;32500;50.620;3.400;2023-04-24T12:02:07;16.10;71.40
46754;DHT22;32500;50.620;3.400;2023-04-24T12:04:40;16.10;72.10
46754;DHT22;32500;50.620;3.400;2023-04-24T12:07:06;16.10;71.30
46754;DHT22;32500;50.620;3.400;2023-04-24T12:09:44;16.10;71.30
46754;DHT22;32500;50.620;3.400;2023-04-24T12:12:12;16.10;71.20
46754;DHT22;32500;50.620;3.400;2023-04-24T12:17:09;16.10;71.20
46754;DHT22;32500;50.620;3.400;2023-04-24T12:19:35;16.10;71.10
46754;DHT22;32500;50.620;3.400;2023-04-24T12:22:07;16.10;71.10
46754;DHT22;32500;50.620;3.400;2023-04-24T12:24:32;16.10;71.00
46754;DHT22;32500;50.620;3.400;2023-04-24T12:26:58;16.10;71.00
46754;DHT22;32500;50.620;3.400;2023-04-24T12:29:24;16.10;70.90
46754;DHT22;32500;50.620;3.400;2023-04-24T12:31:51;16.10;71.10
46754;DHT22;32500;50.620;3.400;2023-04-24T12:34:21;16.10;71.20
46754;DHT22;32500;50.620;3.400;2023-04-24T12:36:47;16.10;71.20
46754;DHT22;32500;50.620;3.400;2023-04-24T12:39:18;16.00;71.20
46754;DHT22;32500;50.620;3.400;2023-04-24T12:42:11;16.10;71.10
46754;DHT22;32500;50.620;3.400;2023-04-24T12:44:37;16.10;71.30
46754;DHT22;32500;50.620;3.400;2023-04-24T12:47:02;16.00;71.10
46754;DHT22;32500;50.620;3.400;2023-04-24T12:49:30;16.10;71.30
46754;DHT22;32500;50.620;3.400;2023-04-24T12:51:56;16.10;71.30
46754;DHT22;32500;50.620;3.400;2023-04-24T12:54:22;16.00;71.30
46754;DHT22;32500;50.620;3.400;2023-04-24T12:56:48;16.10;71.40
46754;DHT22;32500;50.620;3.400;2023-04-24T12:59:13;16.00;71.40
46754;DHT22;32500;50.620;3.400;2023-04-24T13:01:40;16.00;71.50
46754;DHT22;32500;50.620;3.400;2023-04-24T13:04:05;16.00;71.30
46754;DHT22;32500;50.620;3.400;2023-04-24T13:06:31;16.00;71.50
46754;DHT22;32500;50.620;3.400;2023-04-24T13:08:57;16.00;71.50
46754;DHT22;32500;50.620;3.400;2023-04-24T13:11:24;16.00;71.40
46754;DHT22;32500;50.620;3.400;2023-04-24T13:13:50;16.00;71.40
46754;DHT22;32500;50.620;3.400;2023-04-24T13:16:16;16.00;71.40
46754;DHT22;32500;50.620;3.400;2023-04-24T13:18:42;16.00;71.50
46754;DHT22;32500;50.620;3.400;2023-04-24T13:21:08;16.00;71.50
46754;DHT22;32500;50.620;3.400;2023-04-24T13:23:33;16.00;71.30
46754;DHT22;32500;50.620;3.400;2023-04-24T13:26:00;16.00;71.50
46754;DHT22;32500;50.620;3.400;2023-04-24T13:28:26;16.00;71.40
46754;DHT22;32500;50.620;3.400;2023-04-24T13:30:53;16.00;71.40
46754;DHT22;32500;50.620;3.400;2023-04-24T13:33:18;16.00;71.60
46754;DHT22;32500;50.620;3.400;2023-04-24T13:35:44;16.00;71.90
46754;DHT22;32500;50.620;3.400;2023-04-24T13:38:10;16.00;71.90
46754;DHT22;32500;50.620;3.400;2023-04-24T13:40:36;16.00;71.90
46754;DHT22;32500;50.620;3.400;2023-04-24T13:43:02;16.00;71.90
46754;DHT22;32500;50.620;3.400;2023-04-24T13:45:28;16.10;72.00
46754;DHT22;32500;50.620;3.400;2023-04-24T13:47:53;16.10;71.90
46754;DHT22;32500;50.620;3.400;2023-04-24T13:50:20;16.10;71.90
46754;DHT22;32500;50.620;3.400;2023-04-24T13:52:46;16.10;71.90
46754;DHT22;32500;50.620;3.400;2023-04-24T13:55:12;16.00;71.90
46754;DHT22;32500;50.620;3.400;2023-04-24T13:57:37;16.10;71.90
46754;DHT22;32500;50.620;3.400;2023-04-24T14:00:03;16.10;71.90
46754;DHT22;32500;50.620;3.400;2023-04-24T14:02:29;16.10;72.10
46754;DHT22;32500;50.620;3.400;2023-04-24T14:04:55;16.10;72.10
46754;DHT22;32500;50.620;3.400;2023-04-24T14:07:21;16.10;72.00
46754;DHT22;32500;50.620;3.400;2023-04-24T14:09:47;16.10;72.10
46754;DHT22;32500;50.620;3.400;2023-04-24T14:12:12;16.10;71.90
46754;DHT22;32500;50.620;3.400;2023-04-24T14:14:39;16.10;71.80
46754;DHT22;32500;50.620;3.400;2023-04-24T14:17:05;16.10;72.00
46754;DHT22;32500;50.620;3.400;2023-04-24T14:19:31;16.10;72.00
46754;DHT22;32500;50.620;3.400;2023-04-24T14:21:56;16.10;72.10
46754;DHT22;32500;50.620;3.400;2023-04-24T14:24:23;16.10;72.10
46754;DHT22;32500;50.620;3.400;2023-04-24T14:26:49;16.10;72.20
46754;DHT22;32500;50.620;3.400;2023-04-24T14:29:15;16.10;72.40
46754;DHT22;32500;50.620;3.400;2023-04-24T14:31:41;16.10;72.40
46754;DHT22;32500;50.620;3.400;2023-04-24T14:34:07;16.10;72.50
46754;DHT22;32500;50.620;3.400;2023-04-24T14:36:33;16.10;72.40
46754;DHT22;32500;50.620;3.400;2023-04-24T14:39:03;16.10;72.40
46754;DHT22;32500;50.620;3.400;2023-04-24T14:41:33;16.10;72.40
46754;DHT22;32500;50.620;3.400;2023-04-24T14:44:02;16.20;72.50
46754;DHT22;32500;50.620;3.400;2023-04-24T14:46:29;16.20;72.70
46754;DHT22;32500;50.620;3.400;2023-04-24T14:49:01;16.20;72.80
46754;DHT22;32500;50.620;3.400;2023-04-24T14:51:31;16.20;72.80
46754;DHT22;32500;50.620;3.400;2023-04-24T14:54:02;16.20;72.70
46754;DHT22;32500;50.620;3.400;2023-04-24T14:56:33;16.20;72.70
46754;DHT22;32500;50.620;3.400;2023-04-24T14:58:58;16.20;72.80
46754;DHT22;32500;50.620;3.400;2023-04-24T15:01:25;16.20;72.50
46754;DHT22;32500;50.620;3.400;2023-04-24T15:03:53;16.20;72.70
46754;DHT22;32500;50.620;3.400;2023-04-24T15:06:18;16.20;72.90
46754;DHT22;32500;50.620;3.400;2023-04-24T15:08:45;16.10;72.80
46754;DHT22;32500;50.620;3.400;2023-04-24T15:11:11;16.10;72.80
46754;DHT22;32500;50.620;3.400;2023-04-24T15:13:37;16.20;72.90
46754;DHT22;32500;50.620;3.400;2023-04-24T15:16:03;16.10;73.00
46754;DHT22;32500;50.620;3.400;2023-04-24T15:18:29;16.10;73.00
46754;DHT22;32500;50.620;3.400;2023-04-24T15:20:55;16.10;73.00
46754;DHT22;32500;50.620;3.400;2023-04-24T15:23:21;16.10;73.00
46754;DHT22;32500;50.620;3.400;2023-04-24T15:25:47;16.10;73.00
46754;DHT22;32500;50.620;3.400;2023-04-24T15:28:13;16.10;72.90
46754;DHT22;32500;50.620;3.400;2023-04-24T15:30:39;16.10;73.70
46754;DHT22;32500;50.620;3.400;2023-04-24T15:33:04;16.10;73.00
46754;DHT22;32500;50.620;3.400;2023-04-24T15:35:30;16.10;72.90
46754;DHT22;32500;50.620;3.400;2023-04-24T15:37:56;16.10;72.90
46754;DHT22;32500;50.620;3.400;2023-04-24T15:40:22;16.20;73.00